• Terra Properties Inc
  • Software Answer


Nearby METAR Reports


KEDC - Austin Exec, Texas, USA
Distance from station: SW 16mi, 25km
Updated: Sun, 19-Nov-2017 2:55pm CST
Haze, Clear
Haze, Clear
 Wind from calm
Wind: Calm
Temperature: 63°F , 17°C
Dew Point: 28°F , -2°C
Humidity: 27%
Barometer: 30.26 inHg , 1024.7 hPa
Summary: Haze
Clouds: Clear
Visibility: 3 miles , 5 km
2017/11/19 20:55 KEDC 192055Z AUTO 00000KT 3SM HZ CLR 17/M02 A3026 RMK AO2
KGTU - Georgetown, Texas, USA
Distance from station: WNW 17mi, 28km
Updated: Sun, 19-Nov-2017 2:56pm CST
Clear
Clear
 Wind from NE
Wind: NE 8 mph , 13 km/h
Temperature: 64°F , 18°C
Dew Point: 27°F , -3°C
Humidity: 24%
Barometer: 30.27 inHg , 1025.1 hPa
Clouds: Clear
Visibility: 10 miles , 16 km
2017/11/19 20:56 KGTU 192056Z 04007KT 10SM CLR 18/M03 A3027 RMK AO2 SLP251 T01781033 56034
 
KATT - Austin/Mabry, Texas, USA
Distance from station: SW 28mi, 45km
Updated: Sun, 19-Nov-2017 2:51pm CST
Clear
Clear
 Wind from varies
Wind: varies 3 mph , 6 km/h
Temperature: 64°F , 18°C
Barometer: 30.27 inHg , 1025.1 hPa
Clouds: Clear
Visibility: 10 miles , 16 km
2017/11/19 20:51 KATT 192051Z AUTO VRB03KT 10SM CLR 18/ A3027 RMK AO2 SLP248 T0178 56035 $
KAUS - Austin, Texas, USA
Distance from station: SSW 32mi, 51km
Updated: Sun, 19-Nov-2017 2:53pm CST
Mostly Cloudy
Mostly Cloudy
 Wind from N
Wind: N 9 mph , 15 km/h
Temperature: 64°F , 18°C
Dew Point: 30°F , -1°C
Humidity: 28%
Barometer: 30.25 inHg , 1024.4 hPa
Clouds: Mostly Cloudy
Visibility: 10 miles , 16 km
Cloud details: Few Clouds 20000 ft
Mostly Cloudy 25000 ft
2017/11/19 20:53 KAUS 192053Z 01008KT 10SM FEW200 BKN250 18/M01 A3025 RMK AO2 SLP244 T01781006 56034
 
KRYW - Lago Vista, Texas, USA
Distance from station: W 33mi, 54km
Updated: Sun, 19-Nov-2017 2:55pm CST
Clear
Clear
 Wind from E
Wind: E 5 mph , 7 km/h
Temperature: 63°F , 17°C
Dew Point: 28°F , -2°C
Humidity: 27%
Barometer: 30.26 inHg , 1024.7 hPa
Clouds: Clear
Visibility: 10 miles , 16 km
2017/11/19 20:55 KRYW 192055Z AUTO 09004KT 10SM CLR 17/M02 A3026 RMK AO2 T01651024
KILE - Killeen Muni, Texas, USA
Distance from station: NNW 37mi, 59km
Updated: Sun, 19-Nov-2017 2:56pm CST
Haze, Clear
Haze, Clear
 Wind from E
Wind: E 5 mph , 7 km/h
Temperature: 63°F , 17°C
Dew Point: 28°F , -2°C
Humidity: 27%
Barometer: 30.26 inHg , 1024.7 hPa
Summary: Haze
Clouds: Clear
Visibility: 3 miles , 5 km
2017/11/19 20:56 KILE 192056Z AUTO 08004KT 3SM HZ CLR 17/M02 A3026 RMK AO2 SLP269 T01671022 56032
 
KTPL - Temple/Miller, Texas, USA
Distance from station: N 38mi, 61km
Updated: Sun, 19-Nov-2017 2:51pm CST
Clear
Clear
 Wind from N
Wind: N 3 mph , 6 km/h
Temperature: 61°F , 16°C
Dew Point: 27°F , -3°C
Humidity: 27%
Barometer: 30.27 inHg , 1025.1 hPa
Clouds: Clear
Visibility: 10 miles , 16 km
2017/11/19 20:51 KTPL 192051Z AUTO 36003KT 10SM CLR 16/M03 A3027 RMK AO2 SLP268 T01611028 56031
KGYB - Giddings-Lee, Texas, USA
Distance from station: SE 39mi, 62km
Updated: Sun, 19-Nov-2017 3:15pm CST
Clear
Clear
 Wind from NNE
Wind: NNE 6 mph , 9 km/h
Temperature: 63°F , 17°C
Dew Point: 30°F , -1°C
Humidity: 30%
Barometer: 30.25 inHg , 1024.4 hPa
Clouds: Clear
Visibility: 10 miles , 16 km
2017/11/19 21:15 KGYB 192115Z AUTO 03005KT 10SM CLR 17/M01 A3025 RMK AO2 T01671008
 
KGRK - Gray/Ft Hood, Texas, USA
Distance from station: NW 42mi, 67km
Updated: Sun, 19-Nov-2017 2:58pm CST
Clear
Clear
 Wind from E
Wind: E 6 mph , 9 km/h
Temperature: 61°F , 16°C
Dew Point: 23°F , -5°C
Humidity: 23%
Barometer: 30.25 inHg , 1024.4 hPa
Clouds: Clear
Visibility: 10 miles , 16 km
2017/11/19 20:58 KGRK 192058Z 10005KT 10SM CLR 16/M05 A3025 RMK AO2A SLP244 WND DATA ESTMD T01561047 57033 $
KHLR - Ft Hood/Killeen, Texas, USA
Distance from station: NNW 42mi, 67km
Updated: Sun, 19-Nov-2017 2:58pm CST
Clear
Clear
 Wind from NE
Wind: NE 6 mph , 9 km/h
Temperature: 63°F , 17°C
Dew Point: 27°F , -3°C
Humidity: 25%
Barometer: 30.22 inHg , 1023.4 hPa
Clouds: Clear
Visibility: 10 miles , 16 km
2017/11/19 20:58 KHLR 192058Z AUTO 04005KT 10SM CLR 17/M03 A3022 RMK AO2 SLP232 T01661031 57032 $
 
KRWV - Caldwell, Texas, USA
Distance from station: E 43mi, 69km
Updated: Sun, 19-Nov-2017 2:55pm CST
Clear
Clear
 Wind from N
Wind: N 6 mph , 9 km/h
Temperature: 63°F , 17°C
Dew Point: 28°F , -2°C
Humidity: 27%
Barometer: 30.25 inHg , 1024.4 hPa
Clouds: Clear
Visibility: 10 miles , 16 km
2017/11/19 20:55 KRWV 192055Z AUTO 01005KT 10SM CLR 17/M02 A3025 RMK AO2 T01701024
KBMQ - Burnet, Texas, USA
Distance from station: WNW 50mi, 80km
Updated: Sun, 19-Nov-2017 2:53pm CST
Clear
Clear
 Wind from calm
Wind: Calm
Temperature: 61°F , 16°C
Dew Point: 27°F , -3°C
Humidity: 27%
Barometer: 30.28 inHg , 1025.4 hPa
Clouds: Clear
Visibility: 10 miles , 16 km
2017/11/19 20:53 KBMQ 192053Z AUTO 00000KT 10SM CLR 16/M03 A3028 RMK AO2 SLP248 T01611033 56035 $